sensor_id;sensor_type;location;lat;lon;timestamp;P1;durP1;ratioP1;P2;durP2;ratioP2
71777;SDS011;59609;52.430;4.668;2023-01-05T00:00:53;26.70;;;4.82;;
71777;SDS011;59609;52.430;4.668;2023-01-05T00:03:19;35.20;;;5.25;;
71777;SDS011;59609;52.430;4.668;2023-01-05T00:05:45;31.40;;;4.72;;
71777;SDS011;59609;52.430;4.668;2023-01-05T00:08:11;36.05;;;3.80;;
71777;SDS011;59609;52.430;4.668;2023-01-05T00:10:36;25.77;;;4.05;;
71777;SDS011;59609;52.430;4.668;2023-01-05T00:13:20;29.92;;;5.00;;
71777;SDS011;59609;52.430;4.668;2023-01-05T00:16:08;23.50;;;3.22;;
71777;SDS011;59609;52.430;4.668;2023-01-05T00:18:55;27.88;;;3.22;;
71777;SDS011;59609;52.430;4.668;2023-01-05T00:21:39;22.98;;;3.60;;
71777;SDS011;59609;52.430;4.668;2023-01-05T00:24:23;33.42;;;3.90;;
71777;SDS011;59609;52.430;4.668;2023-01-05T00:26:48;24.50;;;3.33;;
71777;SDS011;59609;52.430;4.668;2023-01-05T00:29:14;35.70;;;4.20;;
71777;SDS011;59609;52.430;4.668;2023-01-05T00:31:39;24.02;;;4.05;;
71777;SDS011;59609;52.430;4.668;2023-01-05T00:34:04;19.88;;;3.33;;
71777;SDS011;59609;52.430;4.668;2023-01-05T00:36:30;19.02;;;3.60;;
71777;SDS011;59609;52.430;4.668;2023-01-05T00:38:55;30.27;;;4.53;;
71777;SDS011;59609;52.430;4.668;2023-01-05T00:41:20;22.17;;;3.60;;
71777;SDS011;59609;52.430;4.668;2023-01-05T00:43:46;29.42;;;3.85;;
71777;SDS011;59609;52.430;4.668;2023-01-05T00:46:11;20.48;;;3.03;;
71777;SDS011;59609;52.430;4.668;2023-01-05T00:48:36;22.13;;;3.17;;
71777;SDS011;59609;52.430;4.668;2023-01-05T00:51:02;20.85;;;3.33;;
71777;SDS011;59609;52.430;4.668;2023-01-05T00:53:27;31.60;;;4.20;;
71777;SDS011;59609;52.430;4.668;2023-01-05T00:55:56;18.27;;;3.88;;
71777;SDS011;59609;52.430;4.668;2023-01-05T00:58:22;22.75;;;3.65;;
71777;SDS011;59609;52.430;4.668;2023-01-05T01:00:47;24.63;;;3.58;;
71777;SDS011;59609;52.430;4.668;2023-01-05T01:03:13;23.83;;;3.50;;
71777;SDS011;59609;52.430;4.668;2023-01-05T01:05:38;25.50;;;3.83;;
71777;SDS011;59609;52.430;4.668;2023-01-05T01:08:03;25.23;;;3.38;;
71777;SDS011;59609;52.430;4.668;2023-01-05T01:10:29;38.15;;;4.03;;
71777;SDS011;59609;52.430;4.668;2023-01-05T01:12:54;29.38;;;3.63;;
71777;SDS011;59609;52.430;4.668;2023-01-05T01:15:19;19.95;;;3.30;;
71777;SDS011;59609;52.430;4.668;2023-01-05T01:17:45;29.77;;;3.45;;
71777;SDS011;59609;52.430;4.668;2023-01-05T01:20:10;25.50;;;3.88;;
71777;SDS011;59609;52.430;4.668;2023-01-05T01:22:36;29.33;;;3.42;;
71777;SDS011;59609;52.430;4.668;2023-01-05T01:25:02;27.58;;;4.22;;
71777;SDS011;59609;52.430;4.668;2023-01-05T01:27:28;25.50;;;3.53;;
71777;SDS011;59609;52.430;4.668;2023-01-05T01:29:54;29.80;;;3.92;;
71777;SDS011;59609;52.430;4.668;2023-01-05T01:32:20;36.15;;;3.50;;
71777;SDS011;59609;52.430;4.668;2023-01-05T01:34:45;24.50;;;3.13;;
71777;SDS011;59609;52.430;4.668;2023-01-05T01:37:11;29.15;;;4.43;;
71777;SDS011;59609;52.430;4.668;2023-01-05T01:39:36;32.63;;;3.55;;
71777;SDS011;59609;52.430;4.668;2023-01-05T01:42:02;29.17;;;3.72;;
71777;SDS011;59609;52.430;4.668;2023-01-05T01:47:13;27.13;;;3.70;;
71777;SDS011;59609;52.430;4.668;2023-01-05T01:49:42;33.17;;;4.72;;
71777;SDS011;59609;52.430;4.668;2023-01-05T01:52:08;24.40;;;4.00;;
71777;SDS011;59609;52.430;4.668;2023-01-05T01:54:34;24.38;;;3.10;;
71777;SDS011;59609;52.430;4.668;2023-01-05T01:57:00;25.98;;;3.88;;
71777;SDS011;59609;52.430;4.668;2023-01-05T01:59:25;24.10;;;4.18;;
71777;SDS011;59609;52.430;4.668;2023-01-05T02:01:52;25.63;;;3.13;;
71777;SDS011;59609;52.430;4.668;2023-01-05T02:04:22;29.50;;;3.25;;
71777;SDS011;59609;52.430;4.668;2023-01-05T02:06:49;35.70;;;3.55;;
71777;SDS011;59609;52.430;4.668;2023-01-05T02:09:16;25.92;;;3.58;;
71777;SDS011;59609;52.430;4.668;2023-01-05T02:31:56;24.90;;;2.85;;
71777;SDS011;59609;52.430;4.668;2023-01-05T02:34:32;27.95;;;4.72;;
71777;SDS011;59609;52.430;4.668;2023-01-05T02:37:21;27.48;;;4.97;;
71777;SDS011;59609;52.430;4.668;2023-01-05T02:39:59;34.95;;;4.05;;
71777;SDS011;59609;52.430;4.668;2023-01-05T02:42:30;28.27;;;3.88;;
71777;SDS011;59609;52.430;4.668;2023-01-05T02:45:03;25.52;;;3.47;;
71777;SDS011;59609;52.430;4.668;2023-01-05T02:47:34;25.73;;;3.58;;
71777;SDS011;59609;52.430;4.668;2023-01-05T02:52:51;28.45;;;4.07;;
71777;SDS011;59609;52.430;4.668;2023-01-05T02:55:25;27.55;;;4.78;;
71777;SDS011;59609;52.430;4.668;2023-01-05T02:58:27;31.80;;;3.95;;
71777;SDS011;59609;52.430;4.668;2023-01-05T03:04:03;26.30;;;3.42;;
71777;SDS011;59609;52.430;4.668;2023-01-05T03:06:43;29.42;;;3.97;;
71777;SDS011;59609;52.430;4.668;2023-01-05T03:09:14;28.42;;;3.85;;
71777;SDS011;59609;52.430;4.668;2023-01-05T03:11:53;23.90;;;3.90;;
71777;SDS011;59609;52.430;4.668;2023-01-05T03:14:53;32.17;;;4.25;;
71777;SDS011;59609;52.430;4.668;2023-01-05T03:17:27;26.85;;;3.17;;
71777;SDS011;59609;52.430;4.668;2023-01-05T03:19:56;26.75;;;3.97;;
71777;SDS011;59609;52.430;4.668;2023-01-05T03:22:23;29.23;;;3.17;;
71777;SDS011;59609;52.430;4.668;2023-01-05T03:25:11;28.33;;;3.55;;
71777;SDS011;59609;52.430;4.668;2023-01-05T03:27:58;16.50;;;2.90;;
71777;SDS011;59609;52.430;4.668;2023-01-05T03:30:51;21.98;;;4.25;;
71777;SDS011;59609;52.430;4.668;2023-01-05T03:34:00;25.67;;;4.05;;
71777;SDS011;59609;52.430;4.668;2023-01-05T03:37:06;26.35;;;3.97;;
71777;SDS011;59609;52.430;4.668;2023-01-05T03:39:37;26.10;;;4.07;;
71777;SDS011;59609;52.430;4.668;2023-01-05T03:42:06;29.42;;;3.10;;
71777;SDS011;59609;52.430;4.668;2023-01-05T03:44:39;22.50;;;3.60;;
71777;SDS011;59609;52.430;4.668;2023-01-05T03:47:09;29.42;;;3.13;;
71777;SDS011;59609;52.430;4.668;2023-01-05T03:49:35;34.22;;;5.07;;
71777;SDS011;59609;52.430;4.668;2023-01-05T03:52:01;24.77;;;3.53;;
71777;SDS011;59609;52.430;4.668;2023-01-05T03:54:27;31.50;;;5.00;;
71777;SDS011;59609;52.430;4.668;2023-01-05T03:56:52;26.52;;;3.70;;
71777;SDS011;59609;52.430;4.668;2023-01-05T03:59:18;27.27;;;3.10;;
71777;SDS011;59609;52.430;4.668;2023-01-05T04:01:43;32.40;;;3.92;;
71777;SDS011;59609;52.430;4.668;2023-01-05T04:04:09;20.92;;;2.90;;
71777;SDS011;59609;52.430;4.668;2023-01-05T04:06:34;30.95;;;3.78;;
71777;SDS011;59609;52.430;4.668;2023-01-05T04:09:00;21.15;;;3.25;;
71777;SDS011;59609;52.430;4.668;2023-01-05T04:11:25;24.05;;;2.70;;
71777;SDS011;59609;52.430;4.668;2023-01-05T04:13:50;22.63;;;3.67;;
71777;SDS011;59609;52.430;4.668;2023-01-05T04:16:16;32.58;;;4.43;;
71777;SDS011;59609;52.430;4.668;2023-01-05T04:18:42;17.52;;;3.33;;
71777;SDS011;59609;52.430;4.668;2023-01-05T04:21:07;23.92;;;4.03;;
71777;SDS011;59609;52.430;4.668;2023-01-05T04:23:33;20.38;;;3.05;;
71777;SDS011;59609;52.430;4.668;2023-01-05T04:25:58;27.25;;;3.55;;
71777;SDS011;59609;52.430;4.668;2023-01-05T04:28:24;28.45;;;3.70;;
71777;SDS011;59609;52.430;4.668;2023-01-05T04:30:50;33.28;;;3.63;;
71777;SDS011;59609;52.430;4.668;2023-01-05T04:33:17;25.70;;;3.47;;
71777;SDS011;59609;52.430;4.668;2023-01-05T04:35:43;27.02;;;3.20;;
71777;SDS011;59609;52.430;4.668;2023-01-05T04:38:09;23.02;;;2.80;;
71777;SDS011;59609;52.430;4.668;2023-01-05T04:40:35;16.60;;;2.65;;
71777;SDS011;59609;52.430;4.668;2023-01-05T04:43:00;22.67;;;4.20;;
71777;SDS011;59609;52.430;4.668;2023-01-05T04:45:26;27.05;;;3.47;;
71777;SDS011;59609;52.430;4.668;2023-01-05T04:47:51;25.10;;;3.47;;
71777;SDS011;59609;52.430;4.668;2023-01-05T04:50:17;19.30;;;3.60;;
71777;SDS011;59609;52.430;4.668;2023-01-05T04:52:43;21.40;;;3.15;;
71777;SDS011;59609;52.430;4.668;2023-01-05T04:55:08;27.17;;;3.90;;
71777;SDS011;59609;52.430;4.668;2023-01-05T04:57:34;22.48;;;4.55;;
71777;SDS011;59609;52.430;4.668;2023-01-05T05:00:00;32.00;;;3.78;;
71777;SDS011;59609;52.430;4.668;2023-01-05T05:02:25;18.77;;;2.80;;
71777;SDS011;59609;52.430;4.668;2023-01-05T05:04:51;22.15;;;2.80;;
71777;SDS011;59609;52.430;4.668;2023-01-05T05:07:16;27.33;;;5.25;;
71777;SDS011;59609;52.430;4.668;2023-01-05T05:09:42;24.92;;;3.40;;
71777;SDS011;59609;52.430;4.668;2023-01-05T05:12:07;19.25;;;2.72;;
71777;SDS011;59609;52.430;4.668;2023-01-05T05:14:35;29.25;;;3.97;;
71777;SDS011;59609;52.430;4.668;2023-01-05T05:17:00;31.35;;;4.63;;
71777;SDS011;59609;52.430;4.668;2023-01-05T05:19:26;22.75;;;3.30;;
71777;SDS011;59609;52.430;4.668;2023-01-05T05:21:51;20.52;;;4.07;;
71777;SDS011;59609;52.430;4.668;2023-01-05T05:24:16;28.08;;;3.40;;
71777;SDS011;59609;52.430;4.668;2023-01-05T05:26:42;18.60;;;3.50;;
71777;SDS011;59609;52.430;4.668;2023-01-05T05:29:07;26.65;;;2.92;;
71777;SDS011;59609;52.430;4.668;2023-01-05T05:31:32;25.92;;;3.28;;
71777;SDS011;59609;52.430;4.668;2023-01-05T05:33:58;24.95;;;4.18;;
71777;SDS011;59609;52.430;4.668;2023-01-05T05:36:24;27.83;;;3.55;;
71777;SDS011;59609;52.430;4.668;2023-01-05T05:38:49;22.73;;;4.13;;
71777;SDS011;59609;52.430;4.668;2023-01-05T05:41:14;23.98;;;2.75;;
71777;SDS011;59609;52.430;4.668;2023-01-05T05:43:40;27.92;;;3.63;;
71777;SDS011;59609;52.430;4.668;2023-01-05T05:46:05;34.15;;;4.05;;
71777;SDS011;59609;52.430;4.668;2023-01-05T05:48:30;23.38;;;3.50;;
71777;SDS011;59609;52.430;4.668;2023-01-05T05:50:56;32.13;;;3.58;;
71777;SDS011;59609;52.430;4.668;2023-01-05T05:53:21;21.15;;;3.72;;
71777;SDS011;59609;52.430;4.668;2023-01-05T05:55:49;25.55;;;3.70;;
71777;SDS011;59609;52.430;4.668;2023-01-05T06:00:41;24.90;;;3.15;;
71777;SDS011;59609;52.430;4.668;2023-01-05T06:03:06;35.25;;;4.10;;
71777;SDS011;59609;52.430;4.668;2023-01-05T06:05:32;17.45;;;3.17;;
71777;SDS011;59609;52.430;4.668;2023-01-05T06:07:57;24.30;;;3.17;;
71777;SDS011;59609;52.430;4.668;2023-01-05T06:10:23;23.45;;;3.67;;
71777;SDS011;59609;52.430;4.668;2023-01-05T06:12:48;29.80;;;3.70;;
71777;SDS011;59609;52.430;4.668;2023-01-05T06:15:13;32.88;;;4.80;;
71777;SDS011;59609;52.430;4.668;2023-01-05T06:17:39;21.08;;;3.17;;
71777;SDS011;59609;52.430;4.668;2023-01-05T06:20:04;20.60;;;3.25;;
71777;SDS011;59609;52.430;4.668;2023-01-05T06:22:30;23.35;;;3.60;;
71777;SDS011;59609;52.430;4.668;2023-01-05T06:24:56;29.50;;;3.75;;
71777;SDS011;59609;52.430;4.668;2023-01-05T06:27:21;25.17;;;4.25;;
71777;SDS011;59609;52.430;4.668;2023-01-05T06:29:46;23.60;;;3.25;;
71777;SDS011;59609;52.430;4.668;2023-01-05T06:32:12;22.20;;;3.58;;
71777;SDS011;59609;52.430;4.668;2023-01-05T06:34:37;26.42;;;3.65;;
71777;SDS011;59609;52.430;4.668;2023-01-05T06:37:02;27.33;;;4.03;;
71777;SDS011;59609;52.430;4.668;2023-01-05T06:39:30;23.92;;;3.00;;
71777;SDS011;59609;52.430;4.668;2023-01-05T06:41:55;30.42;;;4.07;;
71777;SDS011;59609;52.430;4.668;2023-01-05T06:44:21;30.63;;;4.57;;
71777;SDS011;59609;52.430;4.668;2023-01-05T06:46:46;25.17;;;4.32;;
71777;SDS011;59609;52.430;4.668;2023-01-05T06:49:11;24.15;;;3.15;;
71777;SDS011;59609;52.430;4.668;2023-01-05T06:51:38;19.67;;;3.25;;
71777;SDS011;59609;52.430;4.668;2023-01-05T06:54:04;27.25;;;3.90;;
71777;SDS011;59609;52.430;4.668;2023-01-05T06:56:30;22.88;;;3.47;;
71777;SDS011;59609;52.430;4.668;2023-01-05T06:58:55;20.35;;;3.28;;
71777;SDS011;59609;52.430;4.668;2023-01-05T07:01:20;30.92;;;4.05;;
71777;SDS011;59609;52.430;4.668;2023-01-05T07:03:46;29.13;;;3.40;;
71777;SDS011;59609;52.430;4.668;2023-01-05T07:06:12;29.70;;;4.60;;
71777;SDS011;59609;52.430;4.668;2023-01-05T07:08:39;23.65;;;3.38;;
71777;SDS011;59609;52.430;4.668;2023-01-05T07:11:04;24.50;;;3.38;;
71777;SDS011;59609;52.430;4.668;2023-01-05T07:13:30;18.48;;;3.50;;
71777;SDS011;59609;52.430;4.668;2023-01-05T07:15:55;21.67;;;3.85;;
71777;SDS011;59609;52.430;4.668;2023-01-05T07:18:20;32.75;;;4.22;;
71777;SDS011;59609;52.430;4.668;2023-01-05T07:20:46;21.98;;;3.20;;
71777;SDS011;59609;52.430;4.668;2023-01-05T07:23:11;30.40;;;4.38;;
71777;SDS011;59609;52.430;4.668;2023-01-05T07:25:36;23.55;;;3.25;;
71777;SDS011;59609;52.430;4.668;2023-01-05T07:28:02;16.00;;;3.28;;
71777;SDS011;59609;52.430;4.668;2023-01-05T07:30:27;35.53;;;4.22;;
71777;SDS011;59609;52.430;4.668;2023-01-05T07:32:56;24.92;;;4.22;;
71777;SDS011;59609;52.430;4.668;2023-01-05T07:35:22;28.17;;;4.50;;
71777;SDS011;59609;52.430;4.668;2023-01-05T07:37:48;18.75;;;4.25;;
71777;SDS011;59609;52.430;4.668;2023-01-05T07:40:13;26.63;;;3.55;;
71777;SDS011;59609;52.430;4.668;2023-01-05T07:42:38;22.33;;;2.75;;
71777;SDS011;59609;52.430;4.668;2023-01-05T07:45:04;25.38;;;3.92;;
71777;SDS011;59609;52.430;4.668;2023-01-05T07:47:30;25.73;;;3.47;;
71777;SDS011;59609;52.430;4.668;2023-01-05T07:49:56;22.35;;;3.85;;
71777;SDS011;59609;52.430;4.668;2023-01-05T07:52:21;22.50;;;3.42;;
71777;SDS011;59609;52.430;4.668;2023-01-05T07:54:47;21.60;;;3.30;;
71777;SDS011;59609;52.430;4.668;2023-01-05T07:57:12;21.73;;;2.85;;
71777;SDS011;59609;52.430;4.668;2023-01-05T07:59:38;21.33;;;2.65;;
71777;SDS011;59609;52.430;4.668;2023-01-05T08:02:04;21.67;;;2.95;;
71777;SDS011;59609;52.430;4.668;2023-01-05T08:04:30;24.65;;;4.00;;
71777;SDS011;59609;52.430;4.668;2023-01-05T08:06:57;35.55;;;3.67;;
71777;SDS011;59609;52.430;4.668;2023-01-05T08:09:26;17.05;;;2.65;;
71777;SDS011;59609;52.430;4.668;2023-01-05T08:12:10;23.77;;;3.60;;
71777;SDS011;59609;52.430;4.668;2023-01-05T08:14:36;22.50;;;3.35;;
71777;SDS011;59609;52.430;4.668;2023-01-05T08:17:02;27.67;;;2.80;;
71777;SDS011;59609;52.430;4.668;2023-01-05T08:19:27;19.05;;;3.47;;
71777;SDS011;59609;52.430;4.668;2023-01-05T08:21:53;29.40;;;3.45;;
71777;SDS011;59609;52.430;4.668;2023-01-05T08:24:18;31.27;;;3.72;;
71777;SDS011;59609;52.430;4.668;2023-01-05T08:26:43;23.55;;;3.38;;
71777;SDS011;59609;52.430;4.668;2023-01-05T08:29:09;32.15;;;3.55;;
71777;SDS011;59609;52.430;4.668;2023-01-05T08:31:34;23.60;;;3.70;;
71777;SDS011;59609;52.430;4.668;2023-01-05T08:34:01;23.92;;;3.33;;
71777;SDS011;59609;52.430;4.668;2023-01-05T08:36:28;29.23;;;3.67;;
71777;SDS011;59609;52.430;4.668;2023-01-05T08:38:57;26.88;;;4.45;;
71777;SDS011;59609;52.430;4.668;2023-01-05T08:41:26;19.67;;;3.10;;
71777;SDS011;59609;52.430;4.668;2023-01-05T08:46:20;26.05;;;3.55;;
71777;SDS011;59609;52.430;4.668;2023-01-05T08:48:51;20.02;;;2.92;;
71777;SDS011;59609;52.430;4.668;2023-01-05T08:51:18;22.58;;;3.05;;
71777;SDS011;59609;52.430;4.668;2023-01-05T08:53:45;25.90;;;4.25;;
71777;SDS011;59609;52.430;4.668;2023-01-05T08:56:11;28.27;;;2.90;;
71777;SDS011;59609;52.430;4.668;2023-01-05T08:58:37;27.08;;;3.03;;
71777;SDS011;59609;52.430;4.668;2023-01-05T09:01:05;25.30;;;3.70;;
71777;SDS011;59609;52.430;4.668;2023-01-05T09:03:34;29.88;;;4.88;;
71777;SDS011;59609;52.430;4.668;2023-01-05T09:06:00;22.77;;;3.05;;
71777;SDS011;59609;52.430;4.668;2023-01-05T09:08:30;23.63;;;3.35;;
71777;SDS011;59609;52.430;4.668;2023-01-05T09:13:31;21.92;;;3.10;;
71777;SDS011;59609;52.430;4.668;2023-01-05T09:15:56;27.00;;;4.13;;
71777;SDS011;59609;52.430;4.668;2023-01-05T09:18:28;21.90;;;2.90;;
71777;SDS011;59609;52.430;4.668;2023-01-05T09:20:54;24.33;;;3.35;;
71777;SDS011;59609;52.430;4.668;2023-01-05T09:23:20;25.02;;;2.90;;
71777;SDS011;59609;52.430;4.668;2023-01-05T09:25:45;25.88;;;3.08;;
71777;SDS011;59609;52.430;4.668;2023-01-05T09:28:11;27.52;;;3.90;;
71777;SDS011;59609;52.430;4.668;2023-01-05T09:30:36;24.23;;;5.15;;
71777;SDS011;59609;52.430;4.668;2023-01-05T09:33:01;26.95;;;3.85;;
71777;SDS011;59609;52.430;4.668;2023-01-05T09:35:27;18.13;;;2.25;;
71777;SDS011;59609;52.430;4.668;2023-01-05T09:37:52;21.30;;;2.65;;
71777;SDS011;59609;52.430;4.668;2023-01-05T09:40:18;24.25;;;3.10;;
71777;SDS011;59609;52.430;4.668;2023-01-05T09:42:44;27.80;;;3.47;;
71777;SDS011;59609;52.430;4.668;2023-01-05T09:45:11;20.15;;;2.97;;
71777;SDS011;59609;52.430;4.668;2023-01-05T09:47:41;29.10;;;3.63;;
71777;SDS011;59609;52.430;4.668;2023-01-05T09:50:16;20.30;;;3.55;;
71777;SDS011;59609;52.430;4.668;2023-01-05T09:52:49;27.30;;;3.60;;
71777;SDS011;59609;52.430;4.668;2023-01-05T09:55:19;24.00;;;3.50;;
71777;SDS011;59609;52.430;4.668;2023-01-05T09:57:55;19.27;;;3.30;;
71777;SDS011;59609;52.430;4.668;2023-01-05T10:00:24;21.15;;;3.25;;
71777;SDS011;59609;52.430;4.668;2023-01-05T10:02:53;26.23;;;5.38;;
71777;SDS011;59609;52.430;4.668;2023-01-05T10:05:25;12.30;;;2.28;;
71777;SDS011;59609;52.430;4.668;2023-01-05T10:10:46;21.75;;;3.20;;
71777;SDS011;59609;52.430;4.668;2023-01-05T10:13:35;16.08;;;2.58;;
71777;SDS011;59609;52.430;4.668;2023-01-05T10:16:03;26.42;;;2.80;;
71777;SDS011;59609;52.430;4.668;2023-01-05T10:18:30;24.15;;;3.85;;
71777;SDS011;59609;52.430;4.668;2023-01-05T10:26:16;22.45;;;3.42;;
71777;SDS011;59609;52.430;4.668;2023-01-05T10:34:17;24.40;;;3.47;;
71777;SDS011;59609;52.430;4.668;2023-01-05T10:36:59;25.23;;;3.10;;
71777;SDS011;59609;52.430;4.668;2023-01-05T10:45:08;27.48;;;3.38;;
71777;SDS011;59609;52.430;4.668;2023-01-05T10:47:37;22.00;;;3.30;;
71777;SDS011;59609;52.430;4.668;2023-01-05T10:50:09;24.83;;;3.53;;
71777;SDS011;59609;52.430;4.668;2023-01-05T10:52:50;23.90;;;3.35;;
71777;SDS011;59609;52.430;4.668;2023-01-05T10:55:17;24.05;;;3.72;;
71777;SDS011;59609;52.430;4.668;2023-01-05T10:57:43;24.30;;;3.47;;
71777;SDS011;59609;52.430;4.668;2023-01-05T11:00:14;25.23;;;4.28;;
71777;SDS011;59609;52.430;4.668;2023-01-05T11:08:12;24.55;;;3.58;;
71777;SDS011;59609;52.430;4.668;2023-01-05T11:10:39;20.83;;;3.15;;
71777;SDS011;59609;52.430;4.668;2023-01-05T11:15:41;25.10;;;3.80;;
71777;SDS011;59609;52.430;4.668;2023-01-05T11:21:05;27.58;;;3.67;;
71777;SDS011;59609;52.430;4.668;2023-01-05T11:23:44;31.00;;;3.13;;
71777;SDS011;59609;52.430;4.668;2023-01-05T11:26:17;22.45;;;2.65;;
71777;SDS011;59609;52.430;4.668;2023-01-05T11:31:24;34.13;;;3.33;;
71777;SDS011;59609;52.430;4.668;2023-01-05T11:37:20;24.00;;;3.17;;
71777;SDS011;59609;52.430;4.668;2023-01-05T11:39:59;27.27;;;3.50;;
71777;SDS011;59609;52.430;4.668;2023-01-05T11:42:31;23.27;;;3.55;;
71777;SDS011;59609;52.430;4.668;2023-01-05T11:47:52;32.97;;;4.45;;
71777;SDS011;59609;52.430;4.668;2023-01-05T11:50:44;30.00;;;3.60;;
71777;SDS011;59609;52.430;4.668;2023-01-05T11:53:25;19.42;;;3.60;;
71777;SDS011;59609;52.430;4.668;2023-01-05T11:56:00;25.02;;;3.42;;
71777;SDS011;59609;52.430;4.668;2023-01-05T11:58:33;23.48;;;3.67;;
71777;SDS011;59609;52.430;4.668;2023-01-05T12:09:40;18.95;;;3.35;;
71777;SDS011;59609;52.430;4.668;2023-01-05T12:20:24;23.13;;;3.83;;
71777;SDS011;59609;52.430;4.668;2023-01-05T12:28:29;25.35;;;3.97;;
71777;SDS011;59609;52.430;4.668;2023-01-05T12:31:25;22.10;;;3.70;;
71777;SDS011;59609;52.430;4.668;2023-01-05T12:39:37;37.03;;;5.05;;
71777;SDS011;59609;52.430;4.668;2023-01-05T12:50:22;27.10;;;3.00;;
71777;SDS011;59609;52.430;4.668;2023-01-05T12:52:55;27.33;;;4.30;;
71777;SDS011;59609;52.430;4.668;2023-01-05T12:55:45;26.52;;;3.40;;
71777;SDS011;59609;52.430;4.668;2023-01-05T13:00:56;33.42;;;3.90;;
71777;SDS011;59609;52.430;4.668;2023-01-05T13:03:29;29.88;;;4.20;;
71777;SDS011;59609;52.430;4.668;2023-01-05T13:06:06;31.27;;;3.75;;
71777;SDS011;59609;52.430;4.668;2023-01-05T13:11:03;28.03;;;4.43;;
71777;SDS011;59609;52.430;4.668;2023-01-05T13:13:35;30.27;;;4.05;;
71777;SDS011;59609;52.430;4.668;2023-01-05T13:18:29;26.23;;;4.28;;
71777;SDS011;59609;52.430;4.668;2023-01-05T13:20:59;28.58;;;4.47;;
71777;SDS011;59609;52.430;4.668;2023-01-05T13:23:29;34.10;;;3.65;;
71777;SDS011;59609;52.430;4.668;2023-01-05T13:26:06;32.72;;;4.32;;
71777;SDS011;59609;52.430;4.668;2023-01-05T13:28:42;32.40;;;5.20;;
71777;SDS011;59609;52.430;4.668;2023-01-05T13:42:44;30.02;;;3.13;;
71777;SDS011;59609;52.430;4.668;2023-01-05T13:51:34;34.15;;;5.07;;
71777;SDS011;59609;52.430;4.668;2023-01-05T13:57:06;25.92;;;4.43;;
71777;SDS011;59609;52.430;4.668;2023-01-05T13:59:36;23.70;;;3.40;;
71777;SDS011;59609;52.430;4.668;2023-01-05T14:02:03;27.50;;;3.45;;
71777;SDS011;59609;52.430;4.668;2023-01-05T14:04:47;40.20;;;4.20;;
71777;SDS011;59609;52.430;4.668;2023-01-05T14:07:14;33.30;;;4.45;;
71777;SDS011;59609;52.430;4.668;2023-01-05T14:09:51;25.48;;;4.95;;
71777;SDS011;59609;52.430;4.668;2023-01-05T14:22:59;21.42;;;2.70;;
71777;SDS011;59609;52.430;4.668;2023-01-05T14:33:31;26.10;;;3.67;;
71777;SDS011;59609;52.430;4.668;2023-01-05T14:36:01;34.30;;;4.20;;
71777;SDS011;59609;52.430;4.668;2023-01-05T14:38:28;26.33;;;3.47;;
71777;SDS011;59609;52.430;4.668;2023-01-05T14:40:53;32.58;;;4.30;;
71777;SDS011;59609;52.430;4.668;2023-01-05T14:48:35;27.88;;;3.30;;
71777;SDS011;59609;52.430;4.668;2023-01-05T14:51:26;26.17;;;3.33;;
71777;SDS011;59609;52.430;4.668;2023-01-05T14:53:54;27.40;;;3.03;;
71777;SDS011;59609;52.430;4.668;2023-01-05T14:56:25;21.95;;;2.83;;
71777;SDS011;59609;52.430;4.668;2023-01-05T14:59:03;22.30;;;2.70;;
71777;SDS011;59609;52.430;4.668;2023-01-05T15:01:52;27.45;;;3.53;;
71777;SDS011;59609;52.430;4.668;2023-01-05T15:04:42;31.08;;;3.58;;
71777;SDS011;59609;52.430;4.668;2023-01-05T15:16:03;24.05;;;3.55;;
71777;SDS011;59609;52.430;4.668;2023-01-05T15:22:06;22.88;;;3.40;;
71777;SDS011;59609;52.430;4.668;2023-01-05T15:24:54;23.70;;;3.03;;
71777;SDS011;59609;52.430;4.668;2023-01-05T15:30:02;22.25;;;2.95;;
71777;SDS011;59609;52.430;4.668;2023-01-05T15:32:43;23.08;;;3.40;;
71777;SDS011;59609;52.430;4.668;2023-01-05T15:37:49;21.45;;;2.47;;
71777;SDS011;59609;52.430;4.668;2023-01-05T15:42:48;21.38;;;2.95;;
71777;SDS011;59609;52.430;4.668;2023-01-05T15:45:18;21.88;;;3.47;;
71777;SDS011;59609;52.430;4.668;2023-01-05T15:47:47;20.83;;;2.70;;
71777;SDS011;59609;52.430;4.668;2023-01-05T15:50:21;22.08;;;3.28;;
71777;SDS011;59609;52.430;4.668;2023-01-05T15:55:18;18.60;;;2.80;;
71777;SDS011;59609;52.430;4.668;2023-01-05T16:00:25;17.58;;;3.30;;
71777;SDS011;59609;52.430;4.668;2023-01-05T16:02:54;21.90;;;2.75;;
71777;SDS011;59609;52.430;4.668;2023-01-05T16:05:21;22.42;;;3.08;;
71777;SDS011;59609;52.430;4.668;2023-01-05T16:07:58;17.45;;;3.17;;
71777;SDS011;59609;52.430;4.668;2023-01-05T16:10:52;17.63;;;2.55;;
71777;SDS011;59609;52.430;4.668;2023-01-05T16:13:30;18.58;;;2.47;;
71777;SDS011;59609;52.430;4.668;2023-01-05T16:16:03;20.30;;;3.55;;
71777;SDS011;59609;52.430;4.668;2023-01-05T16:18:35;14.88;;;2.92;;
71777;SDS011;59609;52.430;4.668;2023-01-05T16:24:19;20.35;;;3.50;;
71777;SDS011;59609;52.430;4.668;2023-01-05T16:26:46;24.38;;;3.85;;
71777;SDS011;59609;52.430;4.668;2023-01-05T16:31:58;15.52;;;3.58;;
71777;SDS011;59609;52.430;4.668;2023-01-05T16:34:24;23.73;;;4.05;;
71777;SDS011;59609;52.430;4.668;2023-01-05T16:37:05;26.10;;;4.07;;
71777;SDS011;59609;52.430;4.668;2023-01-05T16:39:40;21.17;;;3.97;;
71777;SDS011;59609;52.430;4.668;2023-01-05T16:45:19;17.92;;;3.35;;
71777;SDS011;59609;52.430;4.668;2023-01-05T16:47:47;23.20;;;4.35;;
71777;SDS011;59609;52.430;4.668;2023-01-05T16:52:50;12.65;;;5.35;;
71777;SDS011;59609;52.430;4.668;2023-01-05T16:55:23;21.35;;;4.95;;
71777;SDS011;59609;52.430;4.668;2023-01-05T16:57:53;24.45;;;6.13;;
71777;SDS011;59609;52.430;4.668;2023-01-05T17:02:58;19.80;;;5.53;;
71777;SDS011;59609;52.430;4.668;2023-01-05T17:05:28;24.58;;;5.97;;
71777;SDS011;59609;52.430;4.668;2023-01-05T17:08:10;15.52;;;5.70;;
71777;SDS011;59609;52.430;4.668;2023-01-05T17:10:42;28.20;;;5.90;;
71777;SDS011;59609;52.430;4.668;2023-01-05T17:13:15;21.23;;;6.15;;
71777;SDS011;59609;52.430;4.668;2023-01-05T17:15:44;24.73;;;6.10;;
71777;SDS011;59609;52.430;4.668;2023-01-05T17:18:22;29.98;;;8.05;;
71777;SDS011;59609;52.430;4.668;2023-01-05T17:20:49;22.98;;;6.68;;
71777;SDS011;59609;52.430;4.668;2023-01-05T17:25:47;25.48;;;8.13;;
71777;SDS011;59609;52.430;4.668;2023-01-05T17:28:14;28.60;;;8.20;;
71777;SDS011;59609;52.430;4.668;2023-01-05T17:30:39;23.90;;;7.72;;
71777;SDS011;59609;52.430;4.668;2023-01-05T17:33:04;29.38;;;8.77;;
71777;SDS011;59609;52.430;4.668;2023-01-05T17:35:30;26.80;;;8.88;;
71777;SDS011;59609;52.430;4.668;2023-01-05T17:37:56;25.17;;;9.23;;
71777;SDS011;59609;52.430;4.668;2023-01-05T17:40:21;29.00;;;10.82;;
71777;SDS011;59609;52.430;4.668;2023-01-05T17:42:53;31.27;;;10.30;;
71777;SDS011;59609;52.430;4.668;2023-01-05T17:45:20;29.15;;;10.48;;
71777;SDS011;59609;52.430;4.668;2023-01-05T17:47:49;25.50;;;9.77;;
71777;SDS011;59609;52.430;4.668;2023-01-05T17:50:20;29.52;;;10.07;;
71777;SDS011;59609;52.430;4.668;2023-01-05T17:52:55;23.95;;;11.00;;
71777;SDS011;59609;52.430;4.668;2023-01-05T17:55:23;26.10;;;10.13;;
71777;SDS011;59609;52.430;4.668;2023-01-05T17:57:49;31.58;;;10.50;;
71777;SDS011;59609;52.430;4.668;2023-01-05T18:00:16;28.73;;;11.15;;
71777;SDS011;59609;52.430;4.668;2023-01-05T18:02:48;25.73;;;11.07;;
71777;SDS011;59609;52.430;4.668;2023-01-05T18:05:17;22.75;;;9.60;;
71777;SDS011;59609;52.430;4.668;2023-01-05T18:07:42;30.35;;;10.90;;
71777;SDS011;59609;52.430;4.668;2023-01-05T18:10:16;23.00;;;9.88;;
71777;SDS011;59609;52.430;4.668;2023-01-05T18:12:44;21.75;;;8.60;;